Map

Track Data

SID SEASON NUMBER BASIN SUBBASIN NAME ISO_TIME NATURE LAT LON WMO_WIND WMO_PRES WMO_AGENCY TRACK_TYPE DIST2LAND LANDFALL IFLAG USA_AGENCY USA_ATCF_ID USA_LAT USA_LON USA_RECORD USA_STATUS USA_WIND USA_PRES USA_SSHS USA_R34_NE USA_R34_SE USA_R34_SW USA_R34_NW USA_R50_NE USA_R50_SE USA_R50_SW USA_R50_NW USA_R64_NE USA_R64_SE USA_R64_SW USA_R64_NW USA_POCI USA_ROCI USA_RMW USA_EYE TOKYO_LAT TOKYO_LON TOKYO_GRADE TOKYO_WIND TOKYO_PRES TOKYO_R50_DIR TOKYO_R50_LONG TOKYO_R50_SHORT TOKYO_R30_DIR TOKYO_R30_LONG TOKYO_R30_SHORT TOKYO_LAND CMA_LAT CMA_LON CMA_CAT CMA_WIND CMA_PRES HKO_LAT HKO_LON HKO_CAT HKO_WIND HKO_PRES NEWDELHI_LAT NEWDELHI_LON NEWDELHI_GRADE NEWDELHI_WIND NEWDELHI_PRES NEWDELHI_CI NEWDELHI_DP NEWDELHI_POCI REUNION_LAT REUNION_LON REUNION_TYPE REUNION_WIND REUNION_PRES REUNION_TNUM REUNION_CI REUNION_RMW REUNION_R34_NE REUNION_R34_SE REUNION_R34_SW REUNION_R34_NW REUNION_R50_NE REUNION_R50_SE REUNION_R50_SW REUNION_R50_NW REUNION_R64_NE REUNION_R64_SE REUNION_R64_SW REUNION_R64_NW BOM_LAT BOM_LON BOM_TYPE BOM_WIND BOM_PRES BOM_TNUM BOM_CI BOM_RMW BOM_R34_NE BOM_R34_SE BOM_R34_SW BOM_R34_NW BOM_R50_NE BOM_R50_SE BOM_R50_SW BOM_R50_NW BOM_R64_NE BOM_R64_SE BOM_R64_SW BOM_R64_NW BOM_ROCI BOM_POCI BOM_EYE BOM_POS_METHOD BOM_PRES_METHOD NADI_LAT NADI_LON NADI_CAT NADI_WIND NADI_PRES WELLINGTON_LAT WELLINGTON_LON WELLINGTON_WIND WELLINGTON_PRES DS824_LAT DS824_LON DS824_STAGE DS824_WIND DS824_PRES TD9636_LAT TD9636_LON TD9636_STAGE TD9636_WIND TD9636_PRES TD9635_LAT TD9635_LON TD9635_WIND TD9635_PRES TD9635_ROCI NEUMANN_LAT NEUMANN_LON NEUMANN_CLASS NEUMANN_WIND NEUMANN_PRES MLC_LAT MLC_LON MLC_CLASS MLC_WIND MLC_PRES USA_GUST BOM_GUST BOM_GUST_PER REUNION_GUST REUNION_GUST_PER USA_SEAHGT USA_SEARAD_NE USA_SEARAD_SE USA_SEARAD_SW USA_SEARAD_NW STORM_SPEED STORM_DIR
1885101S08087 1885 15 SI MM NOT_NAMED 1885-04-11 00:00:00 TS -8.00000 86.8000 main 1514 1514 _________O____ -1 -8.00000 86.8000 TC 5 235
1885101S08087 1885 15 SI MM NOT_NAMED 1885-04-11 03:00:00 TS -8.13752 86.6000 main 1538 1538 _________P____ -1 -8.13752 86.6000 TC 5 233
1885101S08087 1885 15 SI MM NOT_NAMED 1885-04-11 06:00:00 TS -8.30000 86.4000 main 1569 1569 _________O____ -1 -8.30000 86.4000 TC 5 228
1885101S08087 1885 15 SI MM NOT_NAMED 1885-04-11 09:00:00 TS -8.49999 86.2000 main 1599 1599 _________P____ -1 -8.49999 86.2000 TC 6 225
1885101S08087 1885 15 SI MM NOT_NAMED 1885-04-11 12:00:00 TS -8.70000 86.0000 main 1629 1629 _________O____ -1 -8.70000 86.0000 TC 5 229
1885101S08087 1885 15 SI MM NOT_NAMED 1885-04-11 15:00:00 TS -8.85000 85.7925 main 1654 1654 _________P____ -1 -8.85000 85.7925 TC 5 233
1885101S08087 1885 15 SI MM NOT_NAMED 1885-04-11 18:00:00 TS -9.00000 85.6000 main 1684 1684 _________O____ -1 -9.00000 85.6000 TC 5 225
1885101S08087 1885 15 SI MM NOT_NAMED 1885-04-11 21:00:00 TS -9.20749 85.4350 main 1714 1714 _________P____ -1 -9.20749 85.4350 TC 5 216
1885101S08087 1885 15 SI MM NOT_NAMED 1885-04-12 00:00:00 TS -9.40000 85.3000 main 1735 1735 _________O____ -1 -9.40000 85.3000 TC 4 217
1885101S08087 1885 15 SI MM NOT_NAMED 1885-04-12 03:00:00 TS -9.50748 85.2000 main 1750 1750 _________P____ -1 -9.50748 85.2000 TC 3 225
1885101S08087 1885 15 SI MM NOT_NAMED 1885-04-12 06:00:00 TS -9.60000 85.1000 main 1765 1765 _________O____ -1 -9.60000 85.1000 TC 3 226
1885101S08087 1885 15 SI MM NOT_NAMED 1885-04-12 09:00:00 TS -9.75001 84.9500 main 1785 1785 _________P____ -1 -9.75001 84.9500 TC 4 224
1885101S08087 1885 15 SI MM NOT_NAMED 1885-04-12 12:00:00 TS -9.90000 84.8000 main 1810 1810 _________O____ -1 -9.90000 84.8000 TC 4 224
1885101S08087 1885 15 SI MM NOT_NAMED 1885-04-12 15:00:00 TS -10.0075 84.6925 main 1825 1825 _________P____ -1 -10.0075 84.6925 TC 3 225
1885101S08087 1885 15 SI MM NOT_NAMED 1885-04-12 18:00:00 TS -10.1000 84.6000 main 1840 1840 _________O____ -1 -10.1000 84.6000 TC 3 225
1885101S08087 1885 15 SI MM NOT_NAMED 1885-04-12 21:00:00 TS -10.1925 84.5075 main 1855 1855 _________P____ -1 -10.1925 84.5075 TC 3 225
1885101S08087 1885 15 SI MM NOT_NAMED 1885-04-13 00:00:00 TS -10.3000 84.4000 main 1863 1860 _________O____ -1 -10.3000 84.4000 TC 4 226
1885101S08087 1885 15 SI MM NOT_NAMED 1885-04-13 03:00:00 TS -10.4350 84.2500 main 1871 1869 _________P____ -1 -10.4350 84.2500 TC 4 224
1885101S08087 1885 15 SI MM NOT_NAMED 1885-04-13 06:00:00 TS -10.6000 84.1000 main 1889 1889 _________O____ -1 -10.6000 84.1000 TC 5 214
1885101S08087 1885 15 SI MM NOT_NAMED 1885-04-13 09:00:00 TS -10.8075 83.9925 main 1908 1908 _________P____ -1 -10.8075 83.9925 TC 4 206
1885101S08087 1885 15 SI MM NOT_NAMED 1885-04-13 12:00:00 TS -11.0000 83.9000 main 1928 1928 _________O____ -1 -11.0000 83.9000 TC 4 211
1885101S08087 1885 15 SI MM NOT_NAMED 1885-04-13 15:00:00 TS -11.1150 83.8000 main 1937 1937 _________P____ -1 -11.1150 83.8000 TC 3 225
1885101S08087 1885 15 SI MM NOT_NAMED 1885-04-13 18:00:00 TS -11.2000 83.7000 main 1946 1946 _________O____ -1 -11.2000 83.7000 TC 3 228
1885101S08087 1885 15 SI MM NOT_NAMED 1885-04-13 21:00:00 TS -11.2950 83.6000 main 1955 1955 _________P____ -1 -11.2950 83.6000 TC 3 225
1885101S08087 1885 15 SI MM NOT_NAMED 1885-04-14 00:00:00 TS -11.4000 83.5000 main 1964 _________O____ -1 -11.4000 83.5000 TC 3 223

About IBTrACS Database

This database is a web-friendly format of International Best Track Archive for Climate Stewardship (IBTrACS), a global best track data archive curated by NOAA dating back to 1842.

Updated: 2021-10-21